Time;durP1;ratioP1;P1;durP2;ratioP2;P2;SDS_P1;SDS_P2;PMS_P1;PMS_P2;Temp;Humidity;BMP_temperature;BMP_pressure;BME280_temperature;BME280_humidity;BME280_pressure;Samples;Min_cycle;Max_cycle;Signal;HPM_P1;HPM_P2
2021/11/02 00:01:37;;;;;;;9.30;8.60;;;7.60;99.90;;;;;;5139186;28;20642;-94
2021/11/02 00:04:04;;;;;;;10.10;9.20;;;7.70;99.90;;;;;;5137845;28;20607;-94
2021/11/02 00:06:35;;;;;;;10.07;9.27;;;7.60;99.90;;;;;;5134160;28;20603;-95
2021/11/02 00:09:05;;;;;;;9.93;9.20;;;7.60;99.90;;;;;;5132101;28;20644;-94
2021/11/02 00:11:34;;;;;;;11.30;10.37;;;7.60;99.90;;;;;;5138299;27;20671;-95
2021/11/02 00:14:09;;;;;;;13.40;10.53;;;7.50;99.90;;;;;;5138026;28;20638;-95
2021/11/02 00:16:44;;;;;;;10.07;9.17;;;7.60;99.90;;;;;;5132062;28;20603;-95
2021/11/02 00:19:11;;;;;;;8.57;7.87;;;7.60;99.90;;;;;;5137416;28;20623;-94
2021/11/02 00:21:43;;;;;;;8.10;7.37;;;7.60;99.90;;;;;;5138132;28;20610;-95
2021/11/02 00:24:14;;;;;;;8.13;7.53;;;7.60;99.90;;;;;;5134854;28;20638;-95
2021/11/02 00:26:44;;;;;;;8.97;7.87;;;7.70;99.90;;;;;;5130154;28;20755;-94
2021/11/02 00:29:11;;;;;;;8.40;7.70;;;7.60;99.90;;;;;;5133453;28;20623;-94
2021/11/02 00:31:41;;;;;;;9.00;8.20;;;7.70;99.90;;;;;;5129577;28;20655;-95
2021/11/02 00:34:08;;;;;;;7.93;7.33;;;7.70;99.90;;;;;;5117471;28;20626;-94
2021/11/02 00:36:38;;;;;;;8.13;7.53;;;7.70;99.90;;;;;;5111955;28;20587;-94
2021/11/02 00:39:06;;;;;;;8.20;7.40;;;7.70;99.90;;;;;;5116376;28;20643;-94
2021/11/02 00:41:33;;;;;;;7.73;7.13;;;7.70;99.90;;;;;;5118236;28;20648;-95
2021/11/02 00:44:01;;;;;;;8.40;7.70;;;7.80;99.90;;;;;;5126925;28;20725;-94
2021/11/02 00:46:32;;;;;;;8.27;7.67;;;7.70;99.90;;;;;;5117091;28;20659;-94
2021/11/02 00:49:02;;;;;;;9.30;8.60;;;7.70;99.90;;;;;;5122223;28;21172;-94
2021/11/02 00:51:29;;;;;;;13.43;8.70;;;7.60;99.90;;;;;;5118248;28;20674;-95
2021/11/02 00:53:56;;;;;;;9.60;8.80;;;7.60;99.90;;;;;;5113742;28;20627;-95
2021/11/02 00:56:24;;;;;;;9.00;8.10;;;7.70;99.90;;;;;;5114455;28;20662;-96
2021/11/02 00:58:52;;;;;;;8.80;8.10;;;7.70;99.90;;;;;;5116973;28;20718;-95
2021/11/02 01:01:19;;;;;;;10.07;9.17;;;7.60;99.90;;;;;;5110464;28;21335;-93
2021/11/02 01:03:47;;;;;;;9.30;8.17;;;7.60;99.90;;;;;;5112412;28;20661;-94
2021/11/02 01:06:15;;;;;;;9.17;8.30;;;7.60;99.90;;;;;;5114528;27;21074;-95
2021/11/02 01:08:42;;;;;;;9.10;8.40;;;7.60;99.90;;;;;;5116089;27;20733;-94
2021/11/02 01:11:11;;;;;;;9.77;8.83;;;7.60;99.90;;;;;;5111041;27;20671;-94
2021/11/02 01:13:38;;;;;;;9.70;8.90;;;7.60;99.90;;;;;;5112014;28;20722;-94
2021/11/02 01:16:05;;;;;;;9.37;8.57;;;7.60;99.90;;;;;;5112697;28;20638;-94
2021/11/02 01:18:33;;;;;;;10.00;9.23;;;7.60;99.90;;;;;;5113410;28;20730;-94
2021/11/02 01:21:00;;;;;;;9.17;8.57;;;7.60;99.90;;;;;;5110840;28;20761;-94
2021/11/02 01:23:28;;;;;;;9.83;9.00;;;7.60;99.90;;;;;;5110165;28;20667;-94
2021/11/02 01:25:55;;;;;;;8.60;8.00;;;7.60;99.90;;;;;;5108347;27;20772;-93
2021/11/02 01:28:22;;;;;;;8.70;7.90;;;7.70;99.90;;;;;;5110771;28;20634;-94
2021/11/02 01:30:50;;;;;;;9.70;8.90;;;7.70;99.90;;;;;;5113316;28;20765;-95
2021/11/02 01:33:18;;;;;;;10.00;9.10;;;7.70;99.90;;;;;;5108460;28;21040;-95
2021/11/02 01:35:45;;;;;;;9.67;8.87;;;7.70;99.90;;;;;;5113522;28;20632;-93
2021/11/02 01:38:14;;;;;;;10.30;9.50;;;7.80;99.90;;;;;;5113244;28;20631;-94
2021/11/02 01:40:43;;;;;;;10.33;9.50;;;7.70;99.90;;;;;;5110794;27;20735;-94
2021/11/02 01:43:12;;;;;;;10.60;9.70;;;7.70;99.90;;;;;;5111184;28;20637;-94
2021/11/02 01:45:39;;;;;;;11.57;10.30;;;7.60;99.90;;;;;;5109723;28;20639;-96
2021/11/02 01:48:07;;;;;;;10.50;9.63;;;7.80;99.90;;;;;;5112945;28;20637;-94
2021/11/02 01:50:35;;;;;;;12.17;11.27;;;7.70;99.90;;;;;;5111757;28;20682;-94
2021/11/02 01:53:02;;;;;;;10.87;10.07;;;7.70;99.90;;;;;;5112691;28;20696;-94
2021/11/02 01:55:29;;;;;;;10.73;9.93;;;7.70;99.90;;;;;;5106111;28;20638;-94
2021/11/02 01:57:58;;;;;;;10.60;9.80;;;7.70;99.90;;;;;;5107841;28;20784;-94
2021/11/02 02:00:27;;;;;;;11.13;10.17;;;7.70;99.90;;;;;;5106806;28;20688;-94
2021/11/02 02:03:03;;;;;;;10.17;9.47;;;7.80;99.90;;;;;;5108695;28;20722;-94
2021/11/02 02:05:38;;;;;;;12.10;11.00;;;7.70;99.90;;;;;;5108916;28;20647;-94
2021/11/02 02:08:14;;;;;;;11.17;10.37;;;7.70;99.90;;;;;;5110733;28;20653;-95
2021/11/02 02:10:54;;;;;;;10.53;9.80;;;7.80;99.90;;;;;;5111913;28;20673;-94
2021/11/02 02:13:31;;;;;;;11.83;10.07;;;7.70;99.90;;;;;;5110754;28;20630;-94
2021/11/02 02:16:09;;;;;;;10.30;9.60;;;7.80;99.90;;;;;;5112582;28;20719;-94
2021/11/02 02:18:44;;;;;;;10.60;9.80;;;7.80;99.90;;;;;;5113385;28;21053;-94
2021/11/02 02:21:34;;;;;;;11.67;10.67;;;7.80;99.90;;;;;;5115969;28;20651;-94
2021/11/02 02:24:21;;;;;;;10.80;9.90;;;7.80;99.90;;;;;;5115844;28;20623;-95
2021/11/02 02:27:01;;;;;;;9.90;9.10;;;7.80;99.90;;;;;;5109837;28;20734;-93
2021/11/02 02:29:33;;;;;;;10.30;9.00;;;7.80;99.90;;;;;;5106134;28;20639;-94
2021/11/02 02:32:02;;;;;;;9.77;8.90;;;7.90;99.90;;;;;;5109650;28;21185;-92
2021/11/02 02:34:31;;;;;;;10.40;9.43;;;7.80;99.90;;;;;;5102413;28;20636;-95
2021/11/02 02:37:00;;;;;;;6.53;5.83;;;7.80;99.90;;;;;;5107553;28;20634;-94
2021/11/02 02:39:28;;;;;;;7.70;7.03;;;7.90;99.90;;;;;;5102504;28;20805;-94
2021/11/02 02:41:57;;;;;;;9.40;8.60;;;8.00;99.90;;;;;;5105011;28;20634;-94
2021/11/02 02:44:26;;;;;;;11.17;10.27;;;8.00;99.90;;;;;;5104769;27;20726;-93
2021/11/02 02:46:55;;;;;;;10.00;9.03;;;8.00;99.90;;;;;;5107753;28;20633;-93
2021/11/02 02:49:23;;;;;;;8.30;7.70;;;8.00;99.90;;;;;;5102743;28;20638;-94
2021/11/02 02:51:53;;;;;;;7.50;6.90;;;8.00;99.90;;;;;;5106157;28;20659;-94
2021/11/02 02:54:22;;;;;;;7.40;6.80;;;8.00;99.90;;;;;;5109257;28;20629;-94
2021/11/02 02:56:52;;;;;;;8.10;7.40;;;8.00;99.90;;;;;;5111458;28;21455;-94
2021/11/02 02:59:22;;;;;;;8.27;7.00;;;8.00;99.90;;;;;;5110380;27;20630;-94
2021/11/02 03:01:50;;;;;;;5.60;5.10;;;8.00;99.90;;;;;;5109490;28;20623;-94
2021/11/02 03:04:25;;;;;;;3.60;3.30;;;8.00;99.90;;;;;;5128141;27;20695;-95
2021/11/02 03:07:04;;;;;;;3.87;3.20;;;8.00;99.90;;;;;;5119055;28;20657;-94
2021/11/02 03:09:32;;;;;;;4.50;4.20;;;8.10;99.90;;;;;;5110372;28;20646;-94
2021/11/02 03:12:02;;;;;;;7.83;4.77;;;8.10;99.90;;;;;;5109948;28;20763;-94
2021/11/02 03:14:38;;;;;;;4.43;4.13;;;8.20;99.90;;;;;;5109252;28;20642;-94
2021/11/02 03:17:08;;;;;;;4.70;3.90;;;8.10;99.90;;;;;;5107825;28;20655;-94
2021/11/02 03:45:17;;;;;;;4.03;2.83;;;8.20;99.90;;;;;;5132000;28;20693;-94
2021/11/02 03:48:07;;;;;;;5.30;3.43;;;8.20;99.90;;;;;;5127196;28;20710;-93
2021/11/02 03:50:46;;;;;;;4.30;2.90;;;8.10;99.90;;;;;;5110140;28;20623;-93
2021/11/02 03:56:14;;;;;;;3.17;2.50;;;8.00;99.90;;;;;;5083492;28;20634;-94
2021/11/02 03:58:55;;;;;;;3.97;3.23;;;8.00;99.90;;;;;;5117237;28;20726;-94
2021/11/02 04:01:43;;;;;;;2.67;2.47;;;8.10;99.90;;;;;;5110547;28;20726;-93
2021/11/02 05:47:31;;;;;;;3.60;2.87;;;6.10;99.90;;;;;;5123117;28;20599;-92
2021/11/02 05:50:09;;;;;;;4.13;3.07;;;6.00;99.90;;;;;;5120006;27;20661;-92
2021/11/02 05:53:07;;;;;;;3.93;2.50;;;5.90;99.90;;;;;;5115287;28;20705;-94
2021/11/02 05:58:26;;;;;;;6.67;3.10;;;5.90;99.90;;;;;;5115116;28;20646;-93
2021/11/02 06:01:01;;;;;;;4.20;2.83;;;5.90;99.90;;;;;;5111742;27;20642;-93
2021/11/02 06:03:36;;;;;;;3.87;3.07;;;5.80;99.90;;;;;;5114762;28;20761;-93
2021/11/02 06:06:35;;;;;;;2.90;2.60;;;5.90;99.90;;;;;;5114830;28;20952;-93
2021/11/02 06:09:21;;;;;;;4.67;2.67;;;5.80;99.90;;;;;;5115363;28;20684;-93
2021/11/02 06:29:00;;;;;;;5.80;2.73;;;5.60;99.90;;;;;;5116716;28;20623;-93
2021/11/02 06:31:32;;;;;;;4.83;3.53;;;5.60;99.90;;;;;;5117336;28;20667;-93
2021/11/02 06:34:11;;;;;;;4.67;2.83;;;5.50;99.90;;;;;;5115331;28;20665;-93
2021/11/02 07:19:04;;;;;;;5.07;4.67;;;6.70;99.90;;;;;;5099493;28;20631;-93
2021/11/02 07:21:54;;;;;;;9.43;5.63;;;6.70;99.90;;;;;;5115619;28;20731;-92
2021/11/02 07:24:30;;;;;;;9.00;5.80;;;6.80;99.90;;;;;;5111745;28;20615;-93
2021/11/02 07:27:09;;;;;;;8.43;7.70;;;6.80;99.90;;;;;;5114283;28;20641;-94
2021/11/02 08:46:15;;;;;;;4.70;3.80;;;10.40;99.90;;;;;;5121463;28;20628;-94
2021/11/02 08:48:43;;;;;;;6.23;5.60;;;10.70;99.90;;;;;;5110421;28;21039;-94
2021/11/02 08:51:12;;;;;;;18.67;14.10;;;10.70;99.90;;;;;;5115471;28;20703;-94
2021/11/02 08:53:47;;;;;;;3.87;3.50;;;10.80;99.90;;;;;;5114965;28;21325;-94
2021/11/02 08:56:15;;;;;;;3.70;3.07;;;10.70;99.90;;;;;;5114131;28;20711;-94
2021/11/02 08:58:48;;;;;;;4.43;2.70;;;10.60;99.90;;;;;;5111030;28;20665;-94
2021/11/02 09:01:18;;;;;;;4.17;2.93;;;10.50;99.90;;;;;;5112808;28;21240;-94
2021/11/02 09:03:49;;;;;;;3.80;2.47;;;10.40;99.90;;;;;;5115353;28;20649;-94
2021/11/02 09:06:21;;;;;;;4.57;3.17;;;10.30;99.90;;;;;;5114207;28;20697;-94
2021/11/02 09:09:01;;;;;;;4.67;2.87;;;10.20;99.90;;;;;;5113944;27;20724;-94
2021/11/02 09:11:30;;;;;;;3.80;3.50;;;10.30;99.90;;;;;;5112208;28;21229;-94
2021/11/02 09:14:00;;;;;;;13.27;7.13;;;10.20;99.90;;;;;;5114544;27;20634;-93
2021/11/02 09:19:11;;;;;;;6.37;5.60;;;10.10;99.90;;;;;;5114770;28;20627;-94
2021/11/02 09:21:55;;;;;;;4.77;3.80;;;10.10;99.90;;;;;;5113190;28;22058;-95
2021/11/02 09:24:30;;;;;;;4.77;3.23;;;10.10;99.90;;;;;;5117648;28;20623;-95
2021/11/02 09:29:46;;;;;;;9.30;5.87;;;10.00;99.90;;;;;;5112770;28;20630;-94
2021/11/02 09:32:14;;;;;;;3.80;3.50;;;10.00;99.90;;;;;;5116684;28;20713;-95
2021/11/02 09:34:43;;;;;;;3.60;3.27;;;10.00;99.90;;;;;;5119362;27;20631;-95
2021/11/02 09:37:19;;;;;;;5.70;3.60;;;9.90;99.90;;;;;;5110681;28;20627;-95
2021/11/02 09:40:01;;;;;;;5.13;3.90;;;9.80;99.90;;;;;;5115610;28;20632;-94
2021/11/02 09:43:12;;;;;;;3.00;2.70;;;9.80;99.90;;;;;;5110893;28;21281;-95
2021/11/02 09:46:15;;;;;;;3.20;2.40;;;9.80;99.90;;;;;;5111471;28;20627;-94
2021/11/02 09:49:19;;;;;;;3.87;3.20;;;9.80;99.90;;;;;;5121171;28;20626;-95
2021/11/02 09:52:19;;;;;;;3.73;2.83;;;9.90;99.90;;;;;;5135803;28;20661;-95
2021/11/02 09:55:35;;;;;;;4.13;1.97;;;9.80;99.90;;;;;;5113987;28;20688;-95
2021/11/02 09:58:34;;;;;;;2.80;2.50;;;9.90;99.90;;;;;;5121871;28;20718;-96
2021/11/02 10:04:59;;;;;;;2.67;1.90;;;10.00;99.90;;;;;;5118335;27;20666;-93
2021/11/02 10:08:20;;;;;;;3.87;2.10;;;10.00;99.90;;;;;;5118113;27;20972;-95
2021/11/02 10:11:00;;;;;;;2.73;2.33;;;10.00;99.90;;;;;;5116126;28;20680;-95
2021/11/02 10:14:02;;;;;;;3.20;2.30;;;10.10;99.90;;;;;;5114566;28;20767;-94
2021/11/02 10:20:24;;;;;;;3.07;2.50;;;10.10;99.90;;;;;;5124846;28;20623;-93
2021/11/02 10:26:45;;;;;;;2.97;2.73;;;10.10;99.90;;;;;;5070719;28;20659;-94
2021/11/02 10:29:52;;;;;;;3.50;2.53;;;10.20;99.90;;;;;;5065442;28;20720;-94
2021/11/02 10:32:27;;;;;;;3.50;2.50;;;10.20;99.90;;;;;;5106673;28;20672;-95
2021/11/02 10:35:04;;;;;;;4.50;3.90;;;10.10;99.90;;;;;;5111431;28;20638;-94
2021/11/02 10:37:46;;;;;;;6.10;3.37;;;10.20;99.90;;;;;;5111360;28;20725;-94
2021/11/02 10:40:34;;;;;;;6.10;3.30;;;10.00;99.90;;;;;;5109101;28;21007;-95
2021/11/02 10:43:31;;;;;;;4.03;2.80;;;10.00;99.90;;;;;;5122778;27;20655;-94
2021/11/02 10:46:04;;;;;;;4.23;2.80;;;10.10;99.90;;;;;;5111009;28;20635;-94
2021/11/02 10:48:53;;;;;;;6.30;4.10;;;10.00;99.90;;;;;;5119392;28;20631;-94
2021/11/02 10:51:48;;;;;;;4.93;2.97;;;10.10;99.90;;;;;;5111979;28;20696;-94
2021/11/02 10:54:27;;;;;;;4.27;2.70;;;10.10;99.90;;;;;;5113315;28;20631;-95
2021/11/02 10:57:15;;;;;;;4.53;2.43;;;10.20;99.90;;;;;;5112164;28;20675;-94
2021/11/02 10:59:51;;;;;;;5.97;2.87;;;10.00;99.90;;;;;;5114645;28;20987;-94
2021/11/02 11:02:32;;;;;;;3.10;2.70;;;10.10;99.90;;;;;;5110047;28;21082;-95
2021/11/02 11:05:02;;;;;;;5.40;2.90;;;10.10;99.90;;;;;;5118658;28;20623;-93
2021/11/02 11:07:39;;;;;;;3.70;2.40;;;10.10;99.90;;;;;;5115562;28;21186;-93
2021/11/02 11:10:09;;;;;;;4.23;2.83;;;10.10;99.90;;;;;;5112193;28;20702;-95
2021/11/02 11:12:55;;;;;;;3.97;2.63;;;10.20;99.90;;;;;;5115784;27;20675;-93
2021/11/02 11:15:25;;;;;;;3.70;3.07;;;10.20;99.90;;;;;;5113808;28;20635;-94
2021/11/02 11:17:56;;;;;;;2.77;2.50;;;10.20;99.90;;;;;;5115791;28;21168;-94
2021/11/02 11:20:26;;;;;;;7.00;2.80;;;10.20;99.90;;;;;;5106929;28;21240;-94
2021/11/02 11:22:55;;;;;;;3.20;2.40;;;10.20;99.90;;;;;;5115142;28;20686;-93
2021/11/02 11:25:31;;;;;;;2.93;2.10;;;10.20;99.90;;;;;;5114170;28;20637;-93
2021/11/02 11:28:04;;;;;;;3.40;2.33;;;10.10;99.90;;;;;;5117872;28;21596;-94
2021/11/02 11:30:34;;;;;;;5.57;3.10;;;10.10;99.90;;;;;;5115576;28;20707;-94
2021/11/02 11:33:08;;;;;;;6.17;2.80;;;10.20;99.90;;;;;;5112515;28;20667;-94
2021/11/02 11:35:39;;;;;;;2.27;2.10;;;10.40;99.90;;;;;;5110368;28;20703;-93
2021/11/02 11:38:10;;;;;;;3.80;2.53;;;10.40;99.90;;;;;;5121652;28;21256;-93
2021/11/02 11:40:52;;;;;;;5.90;2.80;;;10.60;99.90;;;;;;5123339;28;20692;-93
2021/11/02 11:43:19;;;;;;;3.10;2.40;;;10.70;99.90;;;;;;5124305;28;20755;-93
2021/11/02 11:45:52;;;;;;;4.70;2.40;;;10.70;99.90;;;;;;5120448;28;20623;-93
2021/11/02 11:48:24;;;;;;;3.90;2.03;;;10.90;99.90;;;;;;5123072;28;20698;-93
2021/11/02 11:50:53;;;;;;;3.50;2.27;;;10.90;99.90;;;;;;5121559;28;20645;-93
2021/11/02 11:53:28;;;;;;;2.63;1.90;;;11.00;99.90;;;;;;5131716;27;20682;-94
2021/11/02 11:58:51;;;;;;;3.47;2.00;;;11.00;99.90;;;;;;5128828;28;20615;-92
2021/11/02 12:01:26;;;;;;;2.37;1.97;;;11.10;99.90;;;;;;5134598;28;20627;-93
2021/11/02 12:06:58;;;;;;;2.00;1.60;;;11.30;99.90;;;;;;5132396;28;20629;-94
2021/11/02 12:09:28;;;;;;;2.23;1.70;;;11.40;99.90;;;;;;5116591;28;20628;-94
2021/11/02 12:12:02;;;;;;;1.10;1.00;;;11.60;99.90;;;;;;5109798;27;20661;-94
2021/11/02 12:14:33;;;;;;;1.63;0.80;;;11.60;99.90;;;;;;5115960;28;20680;-93
2021/11/02 12:17:04;;;;;;;2.30;1.13;;;11.80;99.90;;;;;;5117442;28;20630;-95
2021/11/02 12:19:44;;;;;;;2.00;1.10;;;11.80;99.90;;;;;;5118644;28;20737;-94
2021/11/02 12:22:34;;;;;;;1.10;1.00;;;11.50;99.90;;;;;;5110060;28;20704;-94
2021/11/02 12:25:10;;;;;;;3.63;0.90;;;11.60;99.90;;;;;;5117909;28;20651;-94
2021/11/02 12:27:40;;;;;;;0.60;0.53;;;11.90;99.90;;;;;;5108098;28;20624;-94
2021/11/02 12:30:10;;;;;;;0.70;0.40;;;11.80;99.90;;;;;;5114208;28;20643;-94
2021/11/02 12:32:39;;;;;;;0.90;0.80;;;11.50;99.90;;;;;;5109962;27;20775;-93
2021/11/02 12:35:28;;;;;;;0.90;0.43;;;11.50;99.90;;;;;;5112657;28;20638;-94
2021/11/02 12:38:04;;;;;;;0.60;0.47;;;11.40;99.90;;;;;;5113570;27;20638;-93
2021/11/02 12:40:34;;;;;;;0.90;0.60;;;11.20;99.90;;;;;;5120615;27;21168;-94
2021/11/02 12:43:02;;;;;;;0.70;0.60;;;11.30;99.90;;;;;;5115735;28;20659;-94
2021/11/02 12:45:40;;;;;;;0.93;0.60;;;11.30;99.90;;;;;;5118193;28;20699;-94
2021/11/02 12:48:16;;;;;;;0.50;0.50;;;11.10;99.90;;;;;;5115795;27;20642;-94
2021/11/02 12:50:50;;;;;;;0.67;0.50;;;11.20;99.90;;;;;;5111051;28;20622;-95
2021/11/02 12:53:26;;;;;;;0.83;0.53;;;11.30;99.90;;;;;;5113663;28;20677;-93
2021/11/02 12:56:15;;;;;;;0.80;0.70;;;11.10;99.90;;;;;;5114479;27;20627;-94
2021/11/02 12:58:49;;;;;;;0.60;0.60;;;11.20;99.90;;;;;;5113032;27;20636;-94
2021/11/02 13:01:35;;;;;;;0.60;0.50;;;11.40;99.90;;;;;;5141741;27;20672;-93
2021/11/02 13:04:07;;;;;;;1.13;0.70;;;11.50;99.90;;;;;;5138488;27;20747;-94
2021/11/02 13:09:37;;;;;;;0.77;0.60;;;12.50;99.90;;;;;;5137725;27;20664;-94
2021/11/02 13:12:12;;;;;;;2.23;2.03;;;13.60;99.90;;;;;;5134189;27;20748;-94
2021/11/02 13:14:41;;;;;;;0.60;0.40;;;14.80;99.90;;;;;;5143158;27;20741;-93
2021/11/02 13:17:16;;;;;;;1.00;0.37;;;16.00;99.90;;;;;;5134652;27;20624;-93
2021/11/02 13:19:48;;;;;;;0.50;0.30;;;16.90;99.90;;;;;;5157826;27;20620;-94
2021/11/02 13:22:19;;;;;;;0.43;0.30;;;17.20;99.90;;;;;;5167490;27;20657;-94
2021/11/02 13:25:02;;;;;;;0.60;0.50;;;16.00;99.90;;;;;;5156330;27;20621;-95
2021/11/02 13:27:47;;;;;;;0.53;0.40;;;14.70;99.90;;;;;;5157300;27;20661;-94
2021/11/02 13:30:26;;;;;;;1.47;0.50;;;14.00;99.90;;;;;;5156420;27;20744;-94
2021/11/02 13:33:03;;;;;;;0.50;0.40;;;13.20;99.90;;;;;;5153629;27;20668;-93
2021/11/02 13:35:46;;;;;;;2.13;0.40;;;12.90;99.90;;;;;;5154682;27;20633;-93
2021/11/02 13:38:34;;;;;;;0.60;0.50;;;12.50;99.90;;;;;;5151543;27;20708;-93
2021/11/02 13:41:08;;;;;;;1.30;1.00;;;12.40;99.90;;;;;;5152260;27;20633;-94
2021/11/02 13:43:38;;;;;;;0.50;0.50;;;12.20;99.90;;;;;;5134018;27;20660;-93
2021/11/02 13:46:07;;;;;;;0.83;0.50;;;11.80;99.90;;;;;;5154133;27;20690;-94
2021/11/02 13:48:36;;;;;;;0.60;0.50;;;11.50;99.90;;;;;;5153984;27;20629;-93
2021/11/02 13:51:05;;;;;;;0.57;0.50;;;11.30;99.90;;;;;;5154146;27;20668;-93
2021/11/02 13:53:36;;;;;;;0.60;0.50;;;11.10;99.90;;;;;;5148862;27;20772;-93
2021/11/02 13:56:07;;;;;;;1.27;0.60;;;11.00;99.90;;;;;;5154177;27;20644;-93
2021/11/02 13:58:35;;;;;;;0.93;0.70;;;10.90;99.90;;;;;;5154122;27;20705;-93
2021/11/02 14:01:04;;;;;;;0.97;0.87;;;10.90;99.90;;;;;;5150534;27;20613;-94
2021/11/02 14:03:36;;;;;;;0.93;0.83;;;10.80;99.90;;;;;;5153345;27;20668;-93
2021/11/02 14:06:17;;;;;;;0.70;0.60;;;10.70;99.90;;;;;;5153608;27;21051;-94
2021/11/02 14:08:50;;;;;;;0.70;0.60;;;10.70;99.90;;;;;;5154942;27;20633;-92
2021/11/02 14:11:31;;;;;;;1.20;1.10;;;10.70;99.90;;;;;;5153984;27;21190;-93
2021/11/02 14:14:09;;;;;;;0.90;0.63;;;10.80;99.90;;;;;;5157496;27;20657;-93
2021/11/02 14:16:41;;;;;;;0.70;0.60;;;10.90;99.90;;;;;;5158523;27;20629;-94
2021/11/02 14:19:44;;;;;;;0.77;0.50;;;11.00;99.90;;;;;;5153394;27;20652;-93
2021/11/02 14:22:13;;;;;;;1.00;0.90;;;11.80;99.90;;;;;;5148933;27;20660;-94
2021/11/02 14:24:54;;;;;;;1.50;1.40;;;13.80;99.90;;;;;;5160043;27;20618;-93
2021/11/02 14:27:50;;;;;;;1.10;0.80;;;15.20;99.90;;;;;;5153470;27;20621;-94
2021/11/02 14:30:26;;;;;;;1.13;0.70;;;16.20;99.90;;;;;;5147747;27;20637;-93
2021/11/02 14:33:01;;;;;;;1.30;0.73;;;14.30;99.90;;;;;;5150855;27;20768;-92
2021/11/02 14:35:49;;;;;;;1.37;0.43;;;13.50;99.90;;;;;;5150238;27;20628;-92
2021/11/02 14:38:22;;;;;;;0.50;0.30;;;12.90;99.90;;;;;;5151697;27;21365;-93
2021/11/02 14:41:00;;;;;;;0.67;0.50;;;12.60;99.90;;;;;;5133739;27;21175;-93
2021/11/02 14:43:34;;;;;;;1.37;0.60;;;12.40;99.90;;;;;;5149319;27;21010;-93
2021/11/02 14:46:06;;;;;;;0.90;0.50;;;12.20;99.90;;;;;;5151978;27;20676;-92
2021/11/02 14:48:38;;;;;;;1.00;0.47;;;13.00;99.90;;;;;;5152410;27;20629;-93
2021/11/02 14:51:06;;;;;;;1.03;0.70;;;14.10;99.90;;;;;;5152844;27;20664;-93
2021/11/02 14:53:37;;;;;;;1.37;0.60;;;13.50;99.90;;;;;;5148609;27;20680;-92
2021/11/02 14:56:08;;;;;;;1.50;0.50;;;13.10;99.90;;;;;;5145430;27;20630;-93
2021/11/02 14:58:52;;;;;;;0.40;0.40;;;12.60;99.90;;;;;;5143742;27;20689;-94
2021/11/02 15:01:23;;;;;;;0.70;0.60;;;12.40;99.90;;;;;;5153758;27;20654;-94
2021/11/02 15:03:58;;;;;;;1.37;1.27;;;12.10;99.90;;;;;;5148250;27;20663;-93
2021/11/02 15:06:35;;;;;;;0.67;0.50;;;11.90;99.90;;;;;;5148276;27;20637;-94
2021/11/02 15:09:04;;;;;;;0.60;0.50;;;11.70;99.90;;;;;;5148936;27;20651;-93
2021/11/02 15:11:32;;;;;;;0.80;0.63;;;11.60;99.90;;;;;;5150572;27;20633;-94
2021/11/02 15:14:04;;;;;;;1.37;0.50;;;11.40;99.90;;;;;;5135372;27;21227;-93
2021/11/02 15:16:31;;;;;;;0.83;0.60;;;11.30;99.90;;;;;;5152891;27;20710;-93
2021/11/02 15:19:05;;;;;;;1.33;0.57;;;11.20;99.90;;;;;;5150141;27;20736;-93
2021/11/02 15:21:34;;;;;;;0.80;0.70;;;11.30;99.90;;;;;;5153342;27;20629;-94
2021/11/02 15:24:07;;;;;;;0.60;0.60;;;11.20;99.90;;;;;;5151672;27;20639;-93
2021/11/02 15:26:49;;;;;;;1.43;0.80;;;11.00;99.90;;;;;;5153704;27;21167;-92
2021/11/02 15:29:19;;;;;;;0.80;0.70;;;10.90;99.90;;;;;;5152384;27;20649;-92
2021/11/02 15:32:05;;;;;;;1.33;0.83;;;10.60;99.90;;;;;;5148256;27;20712;-92
2021/11/02 15:34:41;;;;;;;1.30;0.60;;;10.40;99.90;;;;;;5149337;27;20760;-94
2021/11/02 15:37:10;;;;;;;0.50;0.40;;;10.30;99.90;;;;;;5152264;27;20641;-93
2021/11/02 15:39:38;;;;;;;0.80;0.60;;;10.30;99.90;;;;;;5152339;27;20748;-93
2021/11/02 15:42:20;;;;;;;0.70;0.70;;;10.30;99.90;;;;;;5148856;27;20645;-93
2021/11/02 15:44:50;;;;;;;1.20;0.60;;;10.30;99.90;;;;;;5151906;27;20779;-93
2021/11/02 15:47:17;;;;;;;0.90;0.50;;;10.30;99.90;;;;;;5152796;27;20626;-92
2021/11/02 15:49:52;;;;;;;2.10;0.80;;;10.30;99.90;;;;;;5152369;27;20617;-93
2021/11/02 15:52:19;;;;;;;0.73;0.63;;;10.30;99.90;;;;;;5149502;27;20684;-93
2021/11/02 15:54:50;;;;;;;1.90;0.87;;;10.20;99.90;;;;;;5150495;27;20722;-92
2021/11/02 15:57:21;;;;;;;1.23;0.40;;;10.10;99.90;;;;;;5148237;27;20699;-91
2021/11/02 16:00:08;;;;;;;1.03;0.80;;;10.00;99.90;;;;;;5151568;27;20641;-91
2021/11/02 16:02:38;;;;;;;0.80;0.80;;;9.80;99.90;;;;;;5144575;27;20757;-91
2021/11/02 16:05:07;;;;;;;0.90;0.50;;;9.70;99.90;;;;;;5159388;27;20613;-92
2021/11/02 16:07:35;;;;;;;1.20;0.93;;;9.60;99.90;;;;;;5156492;27;20725;-91
2021/11/02 16:10:06;;;;;;;2.00;1.10;;;9.60;99.90;;;;;;5154645;27;20927;-91
2021/11/02 16:12:35;;;;;;;1.10;0.80;;;9.50;99.90;;;;;;5164601;27;20726;-91
2021/11/02 16:15:14;;;;;;;1.23;1.00;;;9.40;99.90;;;;;;5162737;27;20672;-92
2021/11/02 16:17:45;;;;;;;1.60;0.67;;;9.40;99.90;;;;;;5143285;27;20749;-92
2021/11/02 16:20:21;;;;;;;1.40;0.97;;;9.30;99.90;;;;;;5152976;27;20631;-92
2021/11/02 16:22:58;;;;;;;1.47;0.70;;;9.30;99.90;;;;;;5151265;27;20645;-92
2021/11/02 16:25:28;;;;;;;0.70;0.70;;;9.30;99.90;;;;;;5149150;27;21194;-92
2021/11/02 16:28:01;;;;;;;7.30;1.30;;;9.30;99.90;;;;;;5149900;27;20630;-91
2021/11/02 16:30:33;;;;;;;1.70;0.77;;;9.30;99.90;;;;;;5154459;27;21051;-92
2021/11/02 16:33:00;;;;;;;2.07;0.70;;;9.20;99.90;;;;;;5153559;27;20653;-91
2021/11/02 16:35:36;;;;;;;1.10;0.93;;;9.10;99.90;;;;;;5155912;27;21049;-92
2021/11/02 16:38:29;;;;;;;2.20;0.90;;;9.10;99.90;;;;;;5154886;27;20633;-92
2021/11/02 16:41:04;;;;;;;2.03;1.00;;;9.00;99.90;;;;;;5162626;27;20647;-93
2021/11/02 16:43:39;;;;;;;2.20;1.23;;;9.00;99.90;;;;;;5156530;27;20644;-92
2021/11/02 16:46:11;;;;;;;1.40;0.90;;;9.00;99.90;;;;;;5150236;27;21014;-92
2021/11/02 16:48:44;;;;;;;1.33;1.23;;;9.00;99.90;;;;;;5153456;27;20636;-92
2021/11/02 16:51:13;;;;;;;2.10;1.40;;;8.90;99.90;;;;;;5152520;27;20666;-93
2021/11/02 16:53:41;;;;;;;1.20;1.10;;;8.90;99.90;;;;;;5153012;27;20677;-92
2021/11/02 16:56:20;;;;;;;1.50;1.40;;;9.00;99.90;;;;;;5155303;27;20724;-92
2021/11/02 16:58:51;;;;;;;2.10;2.00;;;9.00;99.90;;;;;;5154215;27;20639;-91
2021/11/02 17:01:37;;;;;;;3.37;1.97;;;9.10;99.90;;;;;;5153214;27;20704;-92
2021/11/02 17:04:13;;;;;;;3.30;2.60;;;9.20;99.90;;;;;;5151024;27;21629;-92
2021/11/02 17:06:41;;;;;;;2.50;2.30;;;9.30;99.90;;;;;;5155842;27;20625;-92
2021/11/02 17:09:15;;;;;;;3.70;2.63;;;9.40;99.90;;;;;;5158020;27;21531;-93
2021/11/02 17:11:49;;;;;;;2.23;2.03;;;9.40;99.90;;;;;;5153752;27;20638;-94
2021/11/02 17:14:20;;;;;;;3.07;2.87;;;9.30;99.90;;;;;;5157337;27;20740;-93
2021/11/02 17:17:05;;;;;;;2.80;2.13;;;9.40;99.90;;;;;;5157532;27;20625;-93
2021/11/02 17:19:45;;;;;;;3.03;2.13;;;9.30;99.90;;;;;;5154495;27;20673;-93
2021/11/02 17:22:15;;;;;;;5.33;2.37;;;9.30;99.90;;;;;;5160042;27;20657;-94
2021/11/02 17:24:42;;;;;;;3.03;2.30;;;9.20;99.90;;;;;;5162494;27;21321;-93
2021/11/02 17:27:13;;;;;;;2.73;2.43;;;9.20;99.90;;;;;;5160066;27;20606;-93
2021/11/02 17:29:41;;;;;;;2.80;2.57;;;9.20;99.90;;;;;;5160914;27;20716;-94
2021/11/02 17:35:08;;;;;;;3.50;3.20;;;9.10;99.90;;;;;;5157434;27;20660;-94
2021/11/02 17:37:37;;;;;;;2.80;2.60;;;9.00;99.90;;;;;;5157675;27;20630;-93
2021/11/02 17:40:09;;;;;;;9.13;8.43;;;9.00;99.90;;;;;;5161733;27;20630;-93
2021/11/02 17:42:45;;;;;;;6.50;5.90;;;9.10;99.90;;;;;;5158644;27;20680;-93
2021/11/02 17:45:13;;;;;;;3.97;3.57;;;9.10;99.90;;;;;;5151115;27;20663;-92
2021/11/02 17:47:43;;;;;;;3.57;3.27;;;9.10;99.90;;;;;;5150573;27;20728;-92
2021/11/02 17:50:11;;;;;;;2.80;2.60;;;9.00;99.90;;;;;;5149788;27;20674;-94
2021/11/02 17:52:39;;;;;;;2.90;2.60;;;8.90;99.90;;;;;;5145051;27;20680;-93
2021/11/02 17:55:08;;;;;;;1.83;1.73;;;8.70;99.90;;;;;;5151837;27;21241;-92
2021/11/02 17:57:35;;;;;;;3.03;2.73;;;8.70;99.90;;;;;;5145336;27;20627;-95
2021/11/02 18:00:04;;;;;;;3.60;3.30;;;8.70;99.90;;;;;;5151452;27;20636;-94
2021/11/02 18:02:33;;;;;;;4.07;3.60;;;8.70;99.90;;;;;;5148283;27;20773;-95
2021/11/02 18:05:03;;;;;;;2.83;2.50;;;8.60;99.90;;;;;;5148490;27;20622;-92
2021/11/02 18:07:32;;;;;;;3.37;2.33;;;8.40;99.90;;;;;;5150308;27;21045;-93
2021/11/02 18:10:01;;;;;;;2.40;2.20;;;8.40;99.90;;;;;;5149501;27;20632;-92
2021/11/02 18:12:30;;;;;;;3.13;2.10;;;8.20;99.90;;;;;;5149169;27;20784;-92
2021/11/02 18:14:58;;;;;;;1.90;1.80;;;8.20;99.90;;;;;;5154942;27;20657;-91
2021/11/02 18:17:28;;;;;;;2.60;2.50;;;8.10;99.90;;;;;;5157762;27;20926;-92
2021/11/02 18:19:56;;;;;;;2.20;2.00;;;8.00;99.90;;;;;;5148126;27;20644;-92
2021/11/02 18:22:26;;;;;;;1.70;1.60;;;8.10;99.90;;;;;;5155854;27;20637;-92
2021/11/02 18:24:55;;;;;;;2.17;2.03;;;8.00;99.90;;;;;;5159940;27;20653;-93
2021/11/02 18:27:24;;;;;;;2.90;2.70;;;8.00;99.90;;;;;;5168208;27;20647;-93